sensor_id;sensor_type;location;lat;lon;timestamp;P1;durP1;ratioP1;P2;durP2;ratioP2
15061;SDS011;7630;50.306;8.566;2022-08-19T00:01:19;32.33;;;29.47;;
15061;SDS011;7630;50.306;8.566;2022-08-19T00:05:23;42.23;;;30.07;;
15061;SDS011;7630;50.306;8.566;2022-08-19T00:09:24;34.27;;;31.07;;
15061;SDS011;7630;50.306;8.566;2022-08-19T00:13:26;32.90;;;29.83;;
15061;SDS011;7630;50.306;8.566;2022-08-19T00:17:29;33.47;;;30.17;;
15061;SDS011;7630;50.306;8.566;2022-08-19T00:21:30;30.97;;;28.10;;
15061;SDS011;7630;50.306;8.566;2022-08-19T00:25:31;32.77;;;29.73;;
15061;SDS011;7630;50.306;8.566;2022-08-19T00:29:33;33.93;;;30.57;;
15061;SDS011;7630;50.306;8.566;2022-08-19T00:33:35;32.93;;;29.93;;
15061;SDS011;7630;50.306;8.566;2022-08-19T00:37:36;32.37;;;29.40;;
15061;SDS011;7630;50.306;8.566;2022-08-19T00:41:39;32.30;;;29.33;;
15061;SDS011;7630;50.306;8.566;2022-08-19T00:45:41;33.10;;;30.10;;
15061;SDS011;7630;50.306;8.566;2022-08-19T00:49:45;36.33;;;32.87;;
15061;SDS011;7630;50.306;8.566;2022-08-19T00:53:51;35.80;;;32.10;;
15061;SDS011;7630;50.306;8.566;2022-08-19T00:57:58;35.07;;;31.87;;
15061;SDS011;7630;50.306;8.566;2022-08-19T01:01:57;34.90;;;31.47;;
15061;SDS011;7630;50.306;8.566;2022-08-19T01:05:58;32.13;;;28.90;;
15061;SDS011;7630;50.306;8.566;2022-08-19T01:10:00;33.60;;;30.20;;
15061;SDS011;7630;50.306;8.566;2022-08-19T01:14:02;33.60;;;30.80;;
15061;SDS011;7630;50.306;8.566;2022-08-19T01:18:06;31.47;;;28.73;;
15061;SDS011;7630;50.306;8.566;2022-08-19T01:22:31;32.03;;;29.13;;
15061;SDS011;7630;50.306;8.566;2022-08-19T01:26:21;30.80;;;28.20;;
15061;SDS011;7630;50.306;8.566;2022-08-19T01:30:29;31.10;;;28.23;;
15061;SDS011;7630;50.306;8.566;2022-08-19T01:34:28;32.80;;;29.83;;
15061;SDS011;7630;50.306;8.566;2022-08-19T01:38:29;29.77;;;27.10;;
15061;SDS011;7630;50.306;8.566;2022-08-19T01:42:32;28.33;;;25.90;;
15061;SDS011;7630;50.306;8.566;2022-08-19T01:46:33;30.30;;;27.37;;
15061;SDS011;7630;50.306;8.566;2022-08-19T01:50:35;27.80;;;25.20;;
15061;SDS011;7630;50.306;8.566;2022-08-19T01:54:36;28.07;;;25.30;;
15061;SDS011;7630;50.306;8.566;2022-08-19T01:58:39;29.80;;;27.03;;
15061;SDS011;7630;50.306;8.566;2022-08-19T02:02:43;29.10;;;26.20;;
15061;SDS011;7630;50.306;8.566;2022-08-19T02:06:44;30.50;;;27.57;;
15061;SDS011;7630;50.306;8.566;2022-08-19T02:10:45;27.67;;;25.30;;
15061;SDS011;7630;50.306;8.566;2022-08-19T02:14:47;27.47;;;25.10;;
15061;SDS011;7630;50.306;8.566;2022-08-19T02:18:48;29.83;;;27.13;;
15061;SDS011;7630;50.306;8.566;2022-08-19T02:22:49;30.60;;;27.53;;
15061;SDS011;7630;50.306;8.566;2022-08-19T02:26:51;28.80;;;25.93;;
15061;SDS011;7630;50.306;8.566;2022-08-19T02:30:52;29.33;;;26.30;;
15061;SDS011;7630;50.306;8.566;2022-08-19T02:34:53;30.37;;;27.70;;
15061;SDS011;7630;50.306;8.566;2022-08-19T02:38:54;29.13;;;26.47;;
15061;SDS011;7630;50.306;8.566;2022-08-19T02:42:56;32.50;;;29.40;;
15061;SDS011;7630;50.306;8.566;2022-08-19T02:46:57;29.33;;;26.67;;
15061;SDS011;7630;50.306;8.566;2022-08-19T02:50:58;27.23;;;24.63;;
15061;SDS011;7630;50.306;8.566;2022-08-19T02:55:00;30.20;;;27.10;;
15061;SDS011;7630;50.306;8.566;2022-08-19T02:59:02;29.23;;;26.53;;
15061;SDS011;7630;50.306;8.566;2022-08-19T03:03:06;32.37;;;29.47;;
15061;SDS011;7630;50.306;8.566;2022-08-19T03:07:08;31.07;;;28.17;;
15061;SDS011;7630;50.306;8.566;2022-08-19T03:11:12;31.63;;;28.60;;
15061;SDS011;7630;50.306;8.566;2022-08-19T03:15:21;30.80;;;28.10;;
15061;SDS011;7630;50.306;8.566;2022-08-19T03:19:22;30.27;;;27.50;;
15061;SDS011;7630;50.306;8.566;2022-08-19T03:23:23;33.37;;;30.30;;
15061;SDS011;7630;50.306;8.566;2022-08-19T03:27:24;31.83;;;28.70;;
15061;SDS011;7630;50.306;8.566;2022-08-19T03:31:27;31.10;;;28.10;;
15061;SDS011;7630;50.306;8.566;2022-08-19T03:35:30;28.37;;;25.57;;
15061;SDS011;7630;50.306;8.566;2022-08-19T03:39:31;30.87;;;28.20;;
15061;SDS011;7630;50.306;8.566;2022-08-19T03:43:38;30.30;;;27.63;;
15061;SDS011;7630;50.306;8.566;2022-08-19T03:47:39;28.73;;;26.13;;
15061;SDS011;7630;50.306;8.566;2022-08-19T03:51:41;31.70;;;28.83;;
15061;SDS011;7630;50.306;8.566;2022-08-19T03:55:43;30.30;;;27.60;;
15061;SDS011;7630;50.306;8.566;2022-08-19T03:59:44;29.50;;;26.80;;
15061;SDS011;7630;50.306;8.566;2022-08-19T04:03:46;30.33;;;27.53;;
15061;SDS011;7630;50.306;8.566;2022-08-19T04:07:48;28.30;;;25.73;;
15061;SDS011;7630;50.306;8.566;2022-08-19T04:11:51;33.30;;;30.10;;
15061;SDS011;7630;50.306;8.566;2022-08-19T04:15:56;34.33;;;30.40;;
15061;SDS011;7630;50.306;8.566;2022-08-19T04:19:57;32.57;;;29.13;;
15061;SDS011;7630;50.306;8.566;2022-08-19T04:24:00;31.77;;;28.77;;
15061;SDS011;7630;50.306;8.566;2022-08-19T04:28:04;29.67;;;27.00;;
15061;SDS011;7630;50.306;8.566;2022-08-19T04:32:05;31.97;;;29.07;;
15061;SDS011;7630;50.306;8.566;2022-08-19T04:36:15;33.50;;;30.50;;
15061;SDS011;7630;50.306;8.566;2022-08-19T04:40:21;36.13;;;32.33;;
15061;SDS011;7630;50.306;8.566;2022-08-19T04:44:40;35.10;;;31.43;;
15061;SDS011;7630;50.306;8.566;2022-08-19T04:48:43;33.03;;;29.80;;
15061;SDS011;7630;50.306;8.566;2022-08-19T04:52:46;32.63;;;29.50;;
15061;SDS011;7630;50.306;8.566;2022-08-19T04:56:52;32.93;;;29.83;;
15061;SDS011;7630;50.306;8.566;2022-08-19T05:00:50;33.83;;;30.33;;
15061;SDS011;7630;50.306;8.566;2022-08-19T05:04:58;30.50;;;27.70;;
15061;SDS011;7630;50.306;8.566;2022-08-19T05:09:02;27.70;;;25.10;;
15061;SDS011;7630;50.306;8.566;2022-08-19T05:13:06;29.87;;;27.17;;
15061;SDS011;7630;50.306;8.566;2022-08-19T05:17:09;27.13;;;24.63;;
15061;SDS011;7630;50.306;8.566;2022-08-19T05:21:13;27.90;;;25.30;;
15061;SDS011;7630;50.306;8.566;2022-08-19T05:25:34;27.93;;;25.53;;
15061;SDS011;7630;50.306;8.566;2022-08-19T05:29:35;28.43;;;26.00;;
15061;SDS011;7630;50.306;8.566;2022-08-19T05:33:36;28.10;;;25.70;;
15061;SDS011;7630;50.306;8.566;2022-08-19T05:37:39;25.97;;;23.57;;
15061;SDS011;7630;50.306;8.566;2022-08-19T05:41:45;25.27;;;22.97;;
15061;SDS011;7630;50.306;8.566;2022-08-19T05:45:44;26.13;;;23.43;;
15061;SDS011;7630;50.306;8.566;2022-08-19T05:49:45;22.03;;;20.30;;
15061;SDS011;7630;50.306;8.566;2022-08-19T05:53:47;23.30;;;21.33;;
15061;SDS011;7630;50.306;8.566;2022-08-19T05:57:48;25.70;;;23.40;;
15061;SDS011;7630;50.306;8.566;2022-08-19T06:01:50;24.50;;;22.50;;
15061;SDS011;7630;50.306;8.566;2022-08-19T06:05:54;23.00;;;21.00;;
15061;SDS011;7630;50.306;8.566;2022-08-19T06:09:55;22.07;;;19.93;;
15061;SDS011;7630;50.306;8.566;2022-08-19T06:14:00;22.87;;;20.87;;
15061;SDS011;7630;50.306;8.566;2022-08-19T06:18:03;22.77;;;20.77;;
15061;SDS011;7630;50.306;8.566;2022-08-19T06:22:04;22.43;;;20.13;;
15061;SDS011;7630;50.306;8.566;2022-08-19T06:26:10;22.83;;;20.47;;
15061;SDS011;7630;50.306;8.566;2022-08-19T06:30:12;23.03;;;19.50;;
15061;SDS011;7630;50.306;8.566;2022-08-19T06:34:14;20.17;;;17.47;;
15061;SDS011;7630;50.306;8.566;2022-08-19T06:38:15;17.33;;;15.80;;
15061;SDS011;7630;50.306;8.566;2022-08-19T06:42:16;17.10;;;14.03;;
15061;SDS011;7630;50.306;8.566;2022-08-19T06:46:21;16.53;;;13.73;;
15061;SDS011;7630;50.306;8.566;2022-08-19T06:50:23;14.43;;;13.20;;
15061;SDS011;7630;50.306;8.566;2022-08-19T06:54:25;15.13;;;13.90;;
15061;SDS011;7630;50.306;8.566;2022-08-19T06:58:31;14.20;;;13.00;;
15061;SDS011;7630;50.306;8.566;2022-08-19T07:02:32;12.37;;;11.37;;
15061;SDS011;7630;50.306;8.566;2022-08-19T07:06:33;14.30;;;12.93;;
15061;SDS011;7630;50.306;8.566;2022-08-19T07:10:37;14.07;;;12.87;;
15061;SDS011;7630;50.306;8.566;2022-08-19T07:14:43;15.23;;;12.20;;
15061;SDS011;7630;50.306;8.566;2022-08-19T07:18:47;15.57;;;12.03;;
15061;SDS011;7630;50.306;8.566;2022-08-19T07:22:49;12.93;;;11.83;;
15061;SDS011;7630;50.306;8.566;2022-08-19T07:26:51;12.23;;;11.00;;
15061;SDS011;7630;50.306;8.566;2022-08-19T07:30:54;10.97;;;9.97;;
15061;SDS011;7630;50.306;8.566;2022-08-19T07:34:55;12.03;;;10.87;;
15061;SDS011;7630;50.306;8.566;2022-08-19T07:38:58;11.27;;;10.27;;
15061;SDS011;7630;50.306;8.566;2022-08-19T07:43:01;10.00;;;9.30;;
15061;SDS011;7630;50.306;8.566;2022-08-19T07:47:03;12.33;;;11.20;;
15061;SDS011;7630;50.306;8.566;2022-08-19T07:51:05;10.63;;;9.83;;
15061;SDS011;7630;50.306;8.566;2022-08-19T07:55:09;11.73;;;10.90;;
15061;SDS011;7630;50.306;8.566;2022-08-19T07:59:12;13.23;;;10.87;;
15061;SDS011;7630;50.306;8.566;2022-08-19T08:03:14;10.83;;;10.00;;
15061;SDS011;7630;50.306;8.566;2022-08-19T08:07:17;13.60;;;12.20;;
15061;SDS011;7630;50.306;8.566;2022-08-19T08:11:38;11.70;;;10.70;;
15061;SDS011;7630;50.306;8.566;2022-08-19T08:15:42;13.33;;;12.07;;
15061;SDS011;7630;50.306;8.566;2022-08-19T08:19:45;11.10;;;10.00;;
15061;SDS011;7630;50.306;8.566;2022-08-19T08:23:48;11.90;;;11.00;;
15061;SDS011;7630;50.306;8.566;2022-08-19T08:27:51;10.87;;;10.07;;
15061;SDS011;7630;50.306;8.566;2022-08-19T08:31:55;10.73;;;9.43;;
15061;SDS011;7630;50.306;8.566;2022-08-19T08:35:58;11.63;;;10.63;;
15061;SDS011;7630;50.306;8.566;2022-08-19T08:40:02;12.50;;;11.50;;
15061;SDS011;7630;50.306;8.566;2022-08-19T08:44:04;12.93;;;11.90;;
15061;SDS011;7630;50.306;8.566;2022-08-19T08:48:09;14.33;;;13.17;;
15061;SDS011;7630;50.306;8.566;2022-08-19T08:52:18;13.53;;;12.53;;
15061;SDS011;7630;50.306;8.566;2022-08-19T08:56:27;12.90;;;11.70;;
15061;SDS011;7630;50.306;8.566;2022-08-19T09:00:32;13.77;;;12.60;;
15061;SDS011;7630;50.306;8.566;2022-08-19T09:04:34;13.80;;;12.53;;
15061;SDS011;7630;50.306;8.566;2022-08-19T09:08:43;15.77;;;14.43;;
15061;SDS011;7630;50.306;8.566;2022-08-19T09:17:06;17.20;;;15.90;;
15061;SDS011;7630;50.306;8.566;2022-08-19T09:21:09;16.97;;;15.57;;
15061;SDS011;7630;50.306;8.566;2022-08-19T09:25:12;14.93;;;13.70;;
15061;SDS011;7630;50.306;8.566;2022-08-19T09:29:15;14.00;;;12.90;;
15061;SDS011;7630;50.306;8.566;2022-08-19T09:33:18;14.03;;;12.53;;
15061;SDS011;7630;50.306;8.566;2022-08-19T09:37:20;13.60;;;12.47;;
15061;SDS011;7630;50.306;8.566;2022-08-19T09:41:24;16.47;;;14.87;;
15061;SDS011;7630;50.306;8.566;2022-08-19T09:45:27;15.80;;;14.60;;
15061;SDS011;7630;50.306;8.566;2022-08-19T09:49:29;17.17;;;15.53;;
15061;SDS011;7630;50.306;8.566;2022-08-19T09:53:30;16.00;;;14.50;;
15061;SDS011;7630;50.306;8.566;2022-08-19T09:57:33;17.50;;;15.77;;
15061;SDS011;7630;50.306;8.566;2022-08-19T10:01:35;18.30;;;16.70;;
15061;SDS011;7630;50.306;8.566;2022-08-19T10:05:36;16.97;;;15.53;;
15061;SDS011;7630;50.306;8.566;2022-08-19T10:09:50;19.80;;;18.23;;
15061;SDS011;7630;50.306;8.566;2022-08-19T10:13:51;22.17;;;20.03;;
15061;SDS011;7630;50.306;8.566;2022-08-19T10:17:53;20.60;;;19.10;;
15061;SDS011;7630;50.306;8.566;2022-08-19T10:21:56;19.53;;;17.90;;
15061;SDS011;7630;50.306;8.566;2022-08-19T10:26:02;19.10;;;17.50;;
15061;SDS011;7630;50.306;8.566;2022-08-19T10:30:06;16.87;;;15.67;;
15061;SDS011;7630;50.306;8.566;2022-08-19T10:34:10;16.27;;;15.03;;
15061;SDS011;7630;50.306;8.566;2022-08-19T10:38:13;16.17;;;15.03;;
15061;SDS011;7630;50.306;8.566;2022-08-19T10:42:15;18.57;;;17.27;;
15061;SDS011;7630;50.306;8.566;2022-08-19T10:46:17;18.97;;;17.57;;
15061;SDS011;7630;50.306;8.566;2022-08-19T10:50:19;18.67;;;17.10;;
15061;SDS011;7630;50.306;8.566;2022-08-19T10:54:39;17.60;;;16.20;;
15061;SDS011;7630;50.306;8.566;2022-08-19T10:59:00;18.40;;;16.83;;
15061;SDS011;7630;50.306;8.566;2022-08-19T11:03:03;15.10;;;13.60;;
15061;SDS011;7630;50.306;8.566;2022-08-19T11:07:05;17.17;;;15.77;;
15061;SDS011;7630;50.306;8.566;2022-08-19T11:11:07;16.83;;;15.63;;
15061;SDS011;7630;50.306;8.566;2022-08-19T11:15:09;14.30;;;13.07;;
15061;SDS011;7630;50.306;8.566;2022-08-19T11:19:12;13.70;;;12.60;;
15061;SDS011;7630;50.306;8.566;2022-08-19T11:23:14;15.40;;;14.33;;
15061;SDS011;7630;50.306;8.566;2022-08-19T11:27:15;16.60;;;15.30;;
15061;SDS011;7630;50.306;8.566;2022-08-19T11:31:17;15.90;;;14.57;;
15061;SDS011;7630;50.306;8.566;2022-08-19T11:35:21;17.87;;;16.17;;
15061;SDS011;7630;50.306;8.566;2022-08-19T11:39:24;18.23;;;16.87;;
15061;SDS011;7630;50.306;8.566;2022-08-19T11:43:27;17.07;;;15.87;;
15061;SDS011;7630;50.306;8.566;2022-08-19T11:47:29;16.60;;;15.40;;
15061;SDS011;7630;50.306;8.566;2022-08-19T11:51:31;16.13;;;15.03;;
15061;SDS011;7630;50.306;8.566;2022-08-19T11:55:36;16.17;;;15.00;;
15061;SDS011;7630;50.306;8.566;2022-08-19T11:59:41;15.10;;;14.00;;
15061;SDS011;7630;50.306;8.566;2022-08-19T12:03:44;13.60;;;12.60;;
15061;SDS011;7630;50.306;8.566;2022-08-19T12:07:46;14.60;;;13.37;;
15061;SDS011;7630;50.306;8.566;2022-08-19T12:11:47;15.23;;;13.87;;
15061;SDS011;7630;50.306;8.566;2022-08-19T12:15:49;14.03;;;13.03;;
15061;SDS011;7630;50.306;8.566;2022-08-19T12:19:50;11.93;;;11.13;;
15061;SDS011;7630;50.306;8.566;2022-08-19T12:23:52;13.27;;;11.93;;
15061;SDS011;7630;50.306;8.566;2022-08-19T12:27:55;10.27;;;9.60;;
15061;SDS011;7630;50.306;8.566;2022-08-19T12:31:58;11.67;;;10.50;;
15061;SDS011;7630;50.306;8.566;2022-08-19T12:36:05;10.50;;;9.70;;
15061;SDS011;7630;50.306;8.566;2022-08-19T12:40:09;10.00;;;9.27;;
15061;SDS011;7630;50.306;8.566;2022-08-19T12:44:12;9.80;;;9.17;;
15061;SDS011;7630;50.306;8.566;2022-08-19T12:48:15;9.17;;;8.37;;
15061;SDS011;7630;50.306;8.566;2022-08-19T12:52:18;9.60;;;8.70;;
15061;SDS011;7630;50.306;8.566;2022-08-19T12:56:23;10.47;;;9.57;;
15061;SDS011;7630;50.306;8.566;2022-08-19T13:00:25;9.17;;;7.70;;
15061;SDS011;7630;50.306;8.566;2022-08-19T13:04:26;8.93;;;8.13;;
15061;SDS011;7630;50.306;8.566;2022-08-19T13:08:27;8.60;;;7.03;;
15061;SDS011;7630;50.306;8.566;2022-08-19T13:12:28;7.03;;;6.37;;
15061;SDS011;7630;50.306;8.566;2022-08-19T13:16:29;5.97;;;5.47;;
15061;SDS011;7630;50.306;8.566;2022-08-19T13:20:32;6.40;;;6.00;;
15061;SDS011;7630;50.306;8.566;2022-08-19T13:24:33;5.67;;;5.27;;
15061;SDS011;7630;50.306;8.566;2022-08-19T13:28:35;6.00;;;5.50;;
15061;SDS011;7630;50.306;8.566;2022-08-19T13:32:55;5.73;;;5.33;;
15061;SDS011;7630;50.306;8.566;2022-08-19T13:37:16;6.73;;;6.03;;
15061;SDS011;7630;50.306;8.566;2022-08-19T13:41:19;6.60;;;5.63;;
15061;SDS011;7630;50.306;8.566;2022-08-19T13:45:21;6.03;;;5.57;;
15061;SDS011;7630;50.306;8.566;2022-08-19T13:49:25;6.63;;;6.20;;
15061;SDS011;7630;50.306;8.566;2022-08-19T13:53:26;6.17;;;5.77;;
15061;SDS011;7630;50.306;8.566;2022-08-19T13:57:27;5.13;;;4.83;;
15061;SDS011;7630;50.306;8.566;2022-08-19T14:01:28;6.27;;;5.87;;
15061;SDS011;7630;50.306;8.566;2022-08-19T14:05:31;5.03;;;4.63;;
15061;SDS011;7630;50.306;8.566;2022-08-19T14:09:33;6.00;;;5.50;;
15061;SDS011;7630;50.306;8.566;2022-08-19T14:13:34;5.77;;;5.20;;
15061;SDS011;7630;50.306;8.566;2022-08-19T14:17:39;6.17;;;5.57;;
15061;SDS011;7630;50.306;8.566;2022-08-19T14:21:42;6.00;;;5.60;;
15061;SDS011;7630;50.306;8.566;2022-08-19T14:25:43;6.50;;;6.10;;
15061;SDS011;7630;50.306;8.566;2022-08-19T14:29:45;6.30;;;5.80;;
15061;SDS011;7630;50.306;8.566;2022-08-19T14:33:46;6.30;;;5.70;;
15061;SDS011;7630;50.306;8.566;2022-08-19T14:37:49;6.17;;;5.67;;
15061;SDS011;7630;50.306;8.566;2022-08-19T14:41:51;6.20;;;5.80;;
15061;SDS011;7630;50.306;8.566;2022-08-19T14:45:52;5.73;;;5.40;;
15061;SDS011;7630;50.306;8.566;2022-08-19T14:49:53;5.47;;;4.97;;
15061;SDS011;7630;50.306;8.566;2022-08-19T14:53:55;5.33;;;5.00;;
15061;SDS011;7630;50.306;8.566;2022-08-19T14:57:56;5.97;;;5.57;;
15061;SDS011;7630;50.306;8.566;2022-08-19T15:01:59;6.00;;;5.50;;
15061;SDS011;7630;50.306;8.566;2022-08-19T15:06:03;8.63;;;5.90;;
15061;SDS011;7630;50.306;8.566;2022-08-19T15:10:06;6.50;;;5.80;;
15061;SDS011;7630;50.306;8.566;2022-08-19T15:14:09;6.43;;;5.77;;
15061;SDS011;7630;50.306;8.566;2022-08-19T15:18:10;6.70;;;5.77;;
15061;SDS011;7630;50.306;8.566;2022-08-19T15:22:12;5.80;;;5.50;;
15061;SDS011;7630;50.306;8.566;2022-08-19T15:26:14;5.43;;;4.93;;
15061;SDS011;7630;50.306;8.566;2022-08-19T15:30:19;5.67;;;5.20;;
15061;SDS011;7630;50.306;8.566;2022-08-19T15:34:22;5.53;;;5.03;;
15061;SDS011;7630;50.306;8.566;2022-08-19T15:38:25;5.80;;;5.40;;
15061;SDS011;7630;50.306;8.566;2022-08-19T15:42:26;5.53;;;5.20;;
15061;SDS011;7630;50.306;8.566;2022-08-19T15:46:30;6.23;;;5.50;;
15061;SDS011;7630;50.306;8.566;2022-08-19T15:50:33;5.10;;;4.47;;
15061;SDS011;7630;50.306;8.566;2022-08-19T15:54:35;5.93;;;5.53;;
15061;SDS011;7630;50.306;8.566;2022-08-19T15:58:36;5.93;;;5.43;;
15061;SDS011;7630;50.306;8.566;2022-08-19T16:02:57;5.77;;;5.33;;
15061;SDS011;7630;50.306;8.566;2022-08-19T16:07:17;6.13;;;5.63;;
15061;SDS011;7630;50.306;8.566;2022-08-19T16:11:21;5.30;;;4.90;;
15061;SDS011;7630;50.306;8.566;2022-08-19T16:15:27;8.43;;;6.30;;
15061;SDS011;7630;50.306;8.566;2022-08-19T16:19:30;6.53;;;6.03;;
15061;SDS011;7630;50.306;8.566;2022-08-19T16:23:33;6.67;;;6.27;;
15061;SDS011;7630;50.306;8.566;2022-08-19T16:27:35;6.70;;;6.30;;
15061;SDS011;7630;50.306;8.566;2022-08-19T16:31:37;6.80;;;6.30;;
15061;SDS011;7630;50.306;8.566;2022-08-19T16:35:38;6.73;;;6.13;;
15061;SDS011;7630;50.306;8.566;2022-08-19T16:39:40;7.60;;;6.90;;
15061;SDS011;7630;50.306;8.566;2022-08-19T16:43:43;7.17;;;6.57;;
15061;SDS011;7630;50.306;8.566;2022-08-19T16:47:44;7.30;;;6.80;;
15061;SDS011;7630;50.306;8.566;2022-08-19T16:51:45;8.37;;;7.57;;
15061;SDS011;7630;50.306;8.566;2022-08-19T16:55:47;8.13;;;7.43;;
15061;SDS011;7630;50.306;8.566;2022-08-19T16:59:55;8.10;;;7.50;;
15061;SDS011;7630;50.306;8.566;2022-08-19T17:03:56;7.37;;;6.87;;
15061;SDS011;7630;50.306;8.566;2022-08-19T17:07:58;8.23;;;7.63;;
15061;SDS011;7630;50.306;8.566;2022-08-19T17:11:59;8.47;;;7.93;;
15061;SDS011;7630;50.306;8.566;2022-08-19T17:16:00;7.13;;;6.70;;
15061;SDS011;7630;50.306;8.566;2022-08-19T17:20:02;9.37;;;7.57;;
15061;SDS011;7630;50.306;8.566;2022-08-19T17:24:05;8.93;;;8.23;;
15061;SDS011;7630;50.306;8.566;2022-08-19T17:32:13;9.33;;;8.73;;
15061;SDS011;7630;50.306;8.566;2022-08-19T17:36:19;9.50;;;8.80;;
15061;SDS011;7630;50.306;8.566;2022-08-19T17:40:19;10.73;;;9.70;;
15061;SDS011;7630;50.306;8.566;2022-08-19T17:44:22;9.50;;;8.90;;
15061;SDS011;7630;50.306;8.566;2022-08-19T17:48:24;10.10;;;9.37;;
15061;SDS011;7630;50.306;8.566;2022-08-19T17:52:25;9.20;;;8.57;;
15061;SDS011;7630;50.306;8.566;2022-08-19T17:56:26;9.63;;;8.83;;
15061;SDS011;7630;50.306;8.566;2022-08-19T18:00:31;9.30;;;8.63;;
15061;SDS011;7630;50.306;8.566;2022-08-19T18:04:34;8.80;;;8.10;;
15061;SDS011;7630;50.306;8.566;2022-08-19T18:08:35;8.93;;;8.23;;
15061;SDS011;7630;50.306;8.566;2022-08-19T18:12:40;10.27;;;9.57;;
15061;SDS011;7630;50.306;8.566;2022-08-19T18:16:41;9.43;;;8.60;;
15061;SDS011;7630;50.306;8.566;2022-08-19T18:20:44;9.07;;;8.47;;
15061;SDS011;7630;50.306;8.566;2022-08-19T18:24:45;9.77;;;8.80;;
15061;SDS011;7630;50.306;8.566;2022-08-19T18:28:46;10.60;;;9.87;;
15061;SDS011;7630;50.306;8.566;2022-08-19T18:32:50;9.83;;;9.03;;
15061;SDS011;7630;50.306;8.566;2022-08-19T18:36:53;10.53;;;9.63;;
15061;SDS011;7630;50.306;8.566;2022-08-19T18:40:54;10.40;;;9.47;;
15061;SDS011;7630;50.306;8.566;2022-08-19T18:45:14;9.83;;;9.23;;
15061;SDS011;7630;50.306;8.566;2022-08-19T18:49:34;12.30;;;9.73;;
15061;SDS011;7630;50.306;8.566;2022-08-19T18:53:36;11.20;;;9.27;;
15061;SDS011;7630;50.306;8.566;2022-08-19T18:57:40;9.70;;;9.07;;
15061;SDS011;7630;50.306;8.566;2022-08-19T19:01:42;10.97;;;9.83;;
15061;SDS011;7630;50.306;8.566;2022-08-19T19:05:50;9.50;;;8.70;;
15061;SDS011;7630;50.306;8.566;2022-08-19T19:09:52;9.33;;;8.60;;
15061;SDS011;7630;50.306;8.566;2022-08-19T19:13:54;9.20;;;8.40;;
15061;SDS011;7630;50.306;8.566;2022-08-19T19:17:56;10.17;;;9.43;;
15061;SDS011;7630;50.306;8.566;2022-08-19T19:22:00;10.30;;;9.57;;
15061;SDS011;7630;50.306;8.566;2022-08-19T19:26:03;10.90;;;9.90;;
15061;SDS011;7630;50.306;8.566;2022-08-19T19:30:06;10.70;;;9.80;;
15061;SDS011;7630;50.306;8.566;2022-08-19T19:34:08;10.97;;;9.90;;
15061;SDS011;7630;50.306;8.566;2022-08-19T19:38:12;11.30;;;10.23;;
15061;SDS011;7630;50.306;8.566;2022-08-19T19:42:15;10.73;;;9.90;;
15061;SDS011;7630;50.306;8.566;2022-08-19T19:46:20;10.77;;;9.77;;
15061;SDS011;7630;50.306;8.566;2022-08-19T19:50:21;11.40;;;10.50;;
15061;SDS011;7630;50.306;8.566;2022-08-19T19:54:22;11.07;;;10.07;;
15061;SDS011;7630;50.306;8.566;2022-08-19T19:58:25;12.20;;;10.30;;
15061;SDS011;7630;50.306;8.566;2022-08-19T20:02:28;10.07;;;9.27;;
15061;SDS011;7630;50.306;8.566;2022-08-19T20:06:30;10.50;;;9.80;;
15061;SDS011;7630;50.306;8.566;2022-08-19T20:10:31;10.93;;;10.13;;
15061;SDS011;7630;50.306;8.566;2022-08-19T20:14:33;12.23;;;11.03;;
15061;SDS011;7630;50.306;8.566;2022-08-19T20:18:38;11.37;;;10.37;;
15061;SDS011;7630;50.306;8.566;2022-08-19T20:22:40;11.00;;;10.07;;
15061;SDS011;7630;50.306;8.566;2022-08-19T20:26:43;12.50;;;10.77;;
15061;SDS011;7630;50.306;8.566;2022-08-19T20:30:47;10.17;;;9.37;;
15061;SDS011;7630;50.306;8.566;2022-08-19T20:34:48;12.03;;;10.93;;
15061;SDS011;7630;50.306;8.566;2022-08-19T20:38:49;9.77;;;8.97;;
15061;SDS011;7630;50.306;8.566;2022-08-19T20:42:51;11.43;;;9.47;;
15061;SDS011;7630;50.306;8.566;2022-08-19T20:46:52;10.03;;;9.23;;
15061;SDS011;7630;50.306;8.566;2022-08-19T20:50:55;9.80;;;9.07;;
15061;SDS011;7630;50.306;8.566;2022-08-19T20:54:57;10.47;;;9.67;;
15061;SDS011;7630;50.306;8.566;2022-08-19T20:58:58;11.03;;;10.00;;
15061;SDS011;7630;50.306;8.566;2022-08-19T21:03:00;13.63;;;11.17;;
15061;SDS011;7630;50.306;8.566;2022-08-19T21:07:01;10.60;;;9.73;;
15061;SDS011;7630;50.306;8.566;2022-08-19T21:11:03;10.67;;;9.67;;
15061;SDS011;7630;50.306;8.566;2022-08-19T21:15:06;9.87;;;9.10;;
15061;SDS011;7630;50.306;8.566;2022-08-19T21:19:07;10.13;;;9.10;;
15061;SDS011;7630;50.306;8.566;2022-08-19T21:23:10;9.77;;;8.83;;
15061;SDS011;7630;50.306;8.566;2022-08-19T21:27:12;11.87;;;10.50;;
15061;SDS011;7630;50.306;8.566;2022-08-19T21:31:14;10.23;;;9.37;;
15061;SDS011;7630;50.306;8.566;2022-08-19T21:35:17;10.33;;;9.27;;
15061;SDS011;7630;50.306;8.566;2022-08-19T21:39:19;10.37;;;9.37;;
15061;SDS011;7630;50.306;8.566;2022-08-19T21:43:20;9.97;;;9.00;;
15061;SDS011;7630;50.306;8.566;2022-08-19T21:47:23;9.73;;;8.70;;
15061;SDS011;7630;50.306;8.566;2022-08-19T21:51:24;9.93;;;9.03;;
15061;SDS011;7630;50.306;8.566;2022-08-19T21:55:26;9.70;;;8.83;;
15061;SDS011;7630;50.306;8.566;2022-08-19T22:03:50;10.37;;;9.13;;
15061;SDS011;7630;50.306;8.566;2022-08-19T22:07:53;8.57;;;7.77;;
15061;SDS011;7630;50.306;8.566;2022-08-19T22:12:00;7.57;;;6.90;;
15061;SDS011;7630;50.306;8.566;2022-08-19T22:16:01;8.50;;;7.50;;
15061;SDS011;7630;50.306;8.566;2022-08-19T22:20:03;8.37;;;7.70;;
15061;SDS011;7630;50.306;8.566;2022-08-19T22:24:07;9.03;;;8.00;;
15061;SDS011;7630;50.306;8.566;2022-08-19T22:28:10;7.10;;;6.50;;
15061;SDS011;7630;50.306;8.566;2022-08-19T22:32:15;7.97;;;7.13;;
15061;SDS011;7630;50.306;8.566;2022-08-19T22:36:18;7.40;;;6.70;;
15061;SDS011;7630;50.306;8.566;2022-08-19T22:40:20;7.83;;;7.13;;
15061;SDS011;7630;50.306;8.566;2022-08-19T22:44:21;7.07;;;6.47;;
15061;SDS011;7630;50.306;8.566;2022-08-19T22:48:22;8.60;;;6.73;;
15061;SDS011;7630;50.306;8.566;2022-08-19T22:52:25;8.07;;;6.93;;
15061;SDS011;7630;50.306;8.566;2022-08-19T22:56:27;7.20;;;6.60;;
15061;SDS011;7630;50.306;8.566;2022-08-19T23:00:30;8.33;;;7.57;;
15061;SDS011;7630;50.306;8.566;2022-08-19T23:04:32;8.00;;;6.57;;
15061;SDS011;7630;50.306;8.566;2022-08-19T23:08:34;7.20;;;6.70;;
15061;SDS011;7630;50.306;8.566;2022-08-19T23:12:38;7.33;;;6.83;;
15061;SDS011;7630;50.306;8.566;2022-08-19T23:16:43;6.70;;;6.07;;
15061;SDS011;7630;50.306;8.566;2022-08-19T23:20:48;7.70;;;6.17;;
15061;SDS011;7630;50.306;8.566;2022-08-19T23:24:49;6.97;;;6.00;;
15061;SDS011;7630;50.306;8.566;2022-08-19T23:28:51;7.30;;;6.70;;
15061;SDS011;7630;50.306;8.566;2022-08-19T23:33:16;6.50;;;5.90;;
15061;SDS011;7630;50.306;8.566;2022-08-19T23:37:24;8.40;;;5.50;;
15061;SDS011;7630;50.306;8.566;2022-08-19T23:41:25;6.77;;;6.07;;
15061;SDS011;7630;50.306;8.566;2022-08-19T23:45:27;7.37;;;6.50;;
15061;SDS011;7630;50.306;8.566;2022-08-19T23:49:31;7.07;;;6.30;;
15061;SDS011;7630;50.306;8.566;2022-08-19T23:53:33;7.27;;;6.67;;
15061;SDS011;7630;50.306;8.566;2022-08-19T23:57:35;6.47;;;6.00;;
